sensor_id;sensor_type;location;lat;lon;timestamp;P1;durP1;ratioP1;P2;durP2;ratioP2
73869;SDS011;64924;42.140;24.762;2023-04-25T00:01:14;3.63;;;2.70;;
73869;SDS011;64924;42.140;24.762;2023-04-25T00:03:39;3.80;;;2.13;;
73869;SDS011;64924;42.140;24.762;2023-04-25T00:06:05;4.35;;;2.42;;
73869;SDS011;64924;42.140;24.762;2023-04-25T00:08:32;3.72;;;2.42;;
73869;SDS011;64924;42.140;24.762;2023-04-25T00:10:58;4.65;;;2.55;;
73869;SDS011;64924;42.140;24.762;2023-04-25T00:13:23;5.65;;;2.33;;
73869;SDS011;64924;42.140;24.762;2023-04-25T00:15:50;4.05;;;2.83;;
73869;SDS011;64924;42.140;24.762;2023-04-25T00:18:16;3.92;;;2.53;;
73869;SDS011;64924;42.140;24.762;2023-04-25T00:20:43;3.58;;;2.60;;
73869;SDS011;64924;42.140;24.762;2023-04-25T00:23:12;4.28;;;2.85;;
73869;SDS011;64924;42.140;24.762;2023-04-25T00:25:43;4.45;;;2.72;;
73869;SDS011;64924;42.140;24.762;2023-04-25T00:28:09;4.82;;;3.35;;
73869;SDS011;64924;42.140;24.762;2023-04-25T00:30:35;5.85;;;2.90;;
73869;SDS011;64924;42.140;24.762;2023-04-25T00:33:00;4.65;;;3.05;;
73869;SDS011;64924;42.140;24.762;2023-04-25T00:35:26;6.78;;;3.20;;
73869;SDS011;64924;42.140;24.762;2023-04-25T00:37:51;3.95;;;2.95;;
73869;SDS011;64924;42.140;24.762;2023-04-25T00:40:17;3.78;;;3.33;;
73869;SDS011;64924;42.140;24.762;2023-04-25T00:42:42;3.97;;;2.83;;
73869;SDS011;64924;42.140;24.762;2023-04-25T00:45:10;3.70;;;2.88;;
73869;SDS011;64924;42.140;24.762;2023-04-25T00:47:39;3.33;;;2.67;;
73869;SDS011;64924;42.140;24.762;2023-04-25T00:50:05;3.25;;;2.45;;
73869;SDS011;64924;42.140;24.762;2023-04-25T00:52:31;6.03;;;3.28;;
73869;SDS011;64924;42.140;24.762;2023-04-25T00:54:57;3.60;;;2.97;;
73869;SDS011;64924;42.140;24.762;2023-04-25T00:57:23;4.22;;;2.92;;
73869;SDS011;64924;42.140;24.762;2023-04-25T00:59:49;3.92;;;2.72;;
73869;SDS011;64924;42.140;24.762;2023-04-25T01:02:16;4.95;;;3.03;;
73869;SDS011;64924;42.140;24.762;2023-04-25T01:04:42;4.82;;;2.63;;
73869;SDS011;64924;42.140;24.762;2023-04-25T01:07:07;4.38;;;2.63;;
73869;SDS011;64924;42.140;24.762;2023-04-25T01:09:35;3.75;;;3.03;;
73869;SDS011;64924;42.140;24.762;2023-04-25T01:12:00;4.30;;;2.83;;
73869;SDS011;64924;42.140;24.762;2023-04-25T01:14:28;3.95;;;2.80;;
73869;SDS011;64924;42.140;24.762;2023-04-25T01:16:54;4.53;;;3.08;;
73869;SDS011;64924;42.140;24.762;2023-04-25T01:19:20;5.05;;;3.30;;
73869;SDS011;64924;42.140;24.762;2023-04-25T01:21:46;7.90;;;3.10;;
73869;SDS011;64924;42.140;24.762;2023-04-25T01:24:12;4.38;;;3.00;;
73869;SDS011;64924;42.140;24.762;2023-04-25T01:26:38;5.53;;;2.97;;
73869;SDS011;64924;42.140;24.762;2023-04-25T01:29:09;3.25;;;2.90;;
73869;SDS011;64924;42.140;24.762;2023-04-25T01:31:35;4.57;;;3.53;;
73869;SDS011;64924;42.140;24.762;2023-04-25T01:34:01;3.78;;;2.80;;
73869;SDS011;64924;42.140;24.762;2023-04-25T01:36:27;5.07;;;3.45;;
73869;SDS011;64924;42.140;24.762;2023-04-25T01:38:53;5.13;;;2.97;;
73869;SDS011;64924;42.140;24.762;2023-04-25T01:41:18;6.57;;;3.20;;
73869;SDS011;64924;42.140;24.762;2023-04-25T01:43:45;4.93;;;3.03;;
73869;SDS011;64924;42.140;24.762;2023-04-25T01:46:10;3.92;;;3.20;;
73869;SDS011;64924;42.140;24.762;2023-04-25T01:48:37;4.95;;;3.20;;
73869;SDS011;64924;42.140;24.762;2023-04-25T01:51:02;5.68;;;3.53;;
73869;SDS011;64924;42.140;24.762;2023-04-25T01:53:28;3.88;;;3.05;;
73869;SDS011;64924;42.140;24.762;2023-04-25T01:55:54;5.00;;;3.20;;
73869;SDS011;64924;42.140;24.762;2023-04-25T01:58:19;4.55;;;3.40;;
73869;SDS011;64924;42.140;24.762;2023-04-25T02:00:45;5.38;;;3.50;;
73869;SDS011;64924;42.140;24.762;2023-04-25T02:03:11;5.07;;;4.03;;
73869;SDS011;64924;42.140;24.762;2023-04-25T02:05:37;6.15;;;4.40;;
73869;SDS011;64924;42.140;24.762;2023-04-25T02:08:06;5.40;;;4.57;;
73869;SDS011;64924;42.140;24.762;2023-04-25T02:10:34;6.75;;;5.45;;
73869;SDS011;64924;42.140;24.762;2023-04-25T02:13:00;7.57;;;5.97;;
73869;SDS011;64924;42.140;24.762;2023-04-25T02:15:26;7.25;;;6.18;;
73869;SDS011;64924;42.140;24.762;2023-04-25T02:17:51;10.77;;;7.00;;
73869;SDS011;64924;42.140;24.762;2023-04-25T02:20:18;8.05;;;6.60;;
73869;SDS011;64924;42.140;24.762;2023-04-25T02:22:46;8.43;;;6.95;;
73869;SDS011;64924;42.140;24.762;2023-04-25T02:25:12;8.55;;;6.95;;
73869;SDS011;64924;42.140;24.762;2023-04-25T02:27:37;9.57;;;7.03;;
73869;SDS011;64924;42.140;24.762;2023-04-25T02:30:04;7.93;;;6.72;;
73869;SDS011;64924;42.140;24.762;2023-04-25T02:32:31;8.02;;;6.50;;
73869;SDS011;64924;42.140;24.762;2023-04-25T02:34:59;7.97;;;6.13;;
73869;SDS011;64924;42.140;24.762;2023-04-25T02:37:28;8.65;;;6.32;;
73869;SDS011;64924;42.140;24.762;2023-04-25T02:39:55;7.65;;;6.38;;
73869;SDS011;64924;42.140;24.762;2023-04-25T02:42:20;7.05;;;5.22;;
73869;SDS011;64924;42.140;24.762;2023-04-25T02:44:46;6.78;;;5.57;;
73869;SDS011;64924;42.140;24.762;2023-04-25T02:47:11;6.85;;;5.57;;
73869;SDS011;64924;42.140;24.762;2023-04-25T02:49:36;7.10;;;5.40;;
73869;SDS011;64924;42.140;24.762;2023-04-25T02:52:02;6.63;;;5.55;;
73869;SDS011;64924;42.140;24.762;2023-04-25T02:54:27;7.80;;;5.30;;
73869;SDS011;64924;42.140;24.762;2023-04-25T02:56:53;8.52;;;6.18;;
73869;SDS011;64924;42.140;24.762;2023-04-25T02:59:18;7.13;;;5.43;;
73869;SDS011;64924;42.140;24.762;2023-04-25T03:01:44;8.40;;;6.47;;
73869;SDS011;64924;42.140;24.762;2023-04-25T03:04:10;7.85;;;5.78;;
73869;SDS011;64924;42.140;24.762;2023-04-25T03:06:35;8.30;;;6.55;;
73869;SDS011;64924;42.140;24.762;2023-04-25T03:09:01;8.20;;;6.15;;
73869;SDS011;64924;42.140;24.762;2023-04-25T03:11:26;8.70;;;6.60;;
73869;SDS011;64924;42.140;24.762;2023-04-25T03:13:52;9.98;;;7.10;;
73869;SDS011;64924;42.140;24.762;2023-04-25T03:16:17;8.80;;;7.28;;
73869;SDS011;64924;42.140;24.762;2023-04-25T03:18:43;10.20;;;7.03;;
73869;SDS011;64924;42.140;24.762;2023-04-25T03:21:08;8.77;;;7.00;;
73869;SDS011;64924;42.140;24.762;2023-04-25T03:23:34;8.52;;;6.43;;
73869;SDS011;64924;42.140;24.762;2023-04-25T03:25:59;8.80;;;6.57;;
73869;SDS011;64924;42.140;24.762;2023-04-25T03:28:25;7.40;;;5.95;;
73869;SDS011;64924;42.140;24.762;2023-04-25T03:30:50;10.30;;;6.18;;
73869;SDS011;64924;42.140;24.762;2023-04-25T03:33:16;7.60;;;6.00;;
73869;SDS011;64924;42.140;24.762;2023-04-25T03:35:41;10.63;;;5.93;;
73869;SDS011;64924;42.140;24.762;2023-04-25T03:38:07;6.78;;;5.57;;
73869;SDS011;64924;42.140;24.762;2023-04-25T03:40:33;7.80;;;6.07;;
73869;SDS011;64924;42.140;24.762;2023-04-25T03:42:58;9.27;;;7.13;;
73869;SDS011;64924;42.140;24.762;2023-04-25T03:45:24;8.52;;;6.50;;
73869;SDS011;64924;42.140;24.762;2023-04-25T03:47:49;7.07;;;5.85;;
73869;SDS011;64924;42.140;24.762;2023-04-25T03:50:15;7.97;;;6.15;;
73869;SDS011;64924;42.140;24.762;2023-04-25T03:52:40;9.32;;;6.25;;
73869;SDS011;64924;42.140;24.762;2023-04-25T03:55:06;7.50;;;6.00;;
73869;SDS011;64924;42.140;24.762;2023-04-25T03:57:32;8.27;;;6.80;;
73869;SDS011;64924;42.140;24.762;2023-04-25T03:59:57;8.90;;;6.78;;
73869;SDS011;64924;42.140;24.762;2023-04-25T04:02:23;7.78;;;6.40;;
73869;SDS011;64924;42.140;24.762;2023-04-25T04:04:48;8.23;;;6.05;;
73869;SDS011;64924;42.140;24.762;2023-04-25T04:07:14;9.50;;;7.20;;
73869;SDS011;64924;42.140;24.762;2023-04-25T04:09:39;11.30;;;6.97;;
73869;SDS011;64924;42.140;24.762;2023-04-25T04:12:05;8.35;;;6.97;;
73869;SDS011;64924;42.140;24.762;2023-04-25T04:14:30;11.13;;;6.80;;
73869;SDS011;64924;42.140;24.762;2023-04-25T04:16:56;10.77;;;7.03;;
73869;SDS011;64924;42.140;24.762;2023-04-25T04:19:21;9.70;;;7.18;;
73869;SDS011;64924;42.140;24.762;2023-04-25T04:21:47;9.73;;;7.00;;
73869;SDS011;64924;42.140;24.762;2023-04-25T04:24:12;8.73;;;6.90;;
73869;SDS011;64924;42.140;24.762;2023-04-25T04:26:38;7.50;;;6.15;;
73869;SDS011;64924;42.140;24.762;2023-04-25T04:29:04;19.55;;;7.15;;
73869;SDS011;64924;42.140;24.762;2023-04-25T04:31:30;12.23;;;7.80;;
73869;SDS011;64924;42.140;24.762;2023-04-25T04:33:55;9.32;;;7.97;;
73869;SDS011;64924;42.140;24.762;2023-04-25T04:36:21;8.77;;;7.07;;
73869;SDS011;64924;42.140;24.762;2023-04-25T04:38:48;8.38;;;6.88;;
73869;SDS011;64924;42.140;24.762;2023-04-25T04:41:13;10.63;;;8.13;;
73869;SDS011;64924;42.140;24.762;2023-04-25T04:43:39;10.63;;;7.90;;
73869;SDS011;64924;42.140;24.762;2023-04-25T04:46:05;9.05;;;7.20;;
73869;SDS011;64924;42.140;24.762;2023-04-25T04:48:31;9.60;;;7.45;;
73869;SDS011;64924;42.140;24.762;2023-04-25T04:51:00;9.18;;;7.35;;
73869;SDS011;64924;42.140;24.762;2023-04-25T04:53:26;12.40;;;8.07;;
73869;SDS011;64924;42.140;24.762;2023-04-25T04:55:52;12.13;;;8.15;;
73869;SDS011;64924;42.140;24.762;2023-04-25T04:58:18;11.20;;;7.97;;
73869;SDS011;64924;42.140;24.762;2023-04-25T05:00:44;11.90;;;8.10;;
73869;SDS011;64924;42.140;24.762;2023-04-25T05:03:09;10.90;;;9.02;;
73869;SDS011;64924;42.140;24.762;2023-04-25T05:05:36;23.33;;;10.70;;
73869;SDS011;64924;42.140;24.762;2023-04-25T05:08:05;16.17;;;9.80;;
73869;SDS011;64924;42.140;24.762;2023-04-25T05:10:31;19.23;;;10.50;;
73869;SDS011;64924;42.140;24.762;2023-04-25T05:12:56;17.33;;;11.07;;
73869;SDS011;64924;42.140;24.762;2023-04-25T05:15:22;15.65;;;10.77;;
73869;SDS011;64924;42.140;24.762;2023-04-25T05:17:47;16.00;;;11.15;;
73869;SDS011;64924;42.140;24.762;2023-04-25T05:20:12;14.13;;;10.77;;
73869;SDS011;64924;42.140;24.762;2023-04-25T05:22:39;13.00;;;10.68;;
73869;SDS011;64924;42.140;24.762;2023-04-25T05:25:06;15.13;;;10.90;;
73869;SDS011;64924;42.140;24.762;2023-04-25T05:27:33;17.83;;;11.52;;
73869;SDS011;64924;42.140;24.762;2023-04-25T05:29:58;16.85;;;12.13;;
73869;SDS011;64924;42.140;24.762;2023-04-25T05:32:24;16.67;;;10.88;;
73869;SDS011;64924;42.140;24.762;2023-04-25T05:34:50;12.95;;;10.48;;
73869;SDS011;64924;42.140;24.762;2023-04-25T05:37:16;18.08;;;10.80;;
73869;SDS011;64924;42.140;24.762;2023-04-25T05:39:42;15.60;;;11.38;;
73869;SDS011;64924;42.140;24.762;2023-04-25T05:42:07;14.23;;;11.02;;
73869;SDS011;64924;42.140;24.762;2023-04-25T05:44:32;18.77;;;11.93;;
73869;SDS011;64924;42.140;24.762;2023-04-25T05:46:58;16.13;;;13.20;;
73869;SDS011;64924;42.140;24.762;2023-04-25T05:49:24;16.52;;;12.05;;
73869;SDS011;64924;42.140;24.762;2023-04-25T05:51:49;17.20;;;11.93;;
73869;SDS011;64924;42.140;24.762;2023-04-25T05:54:15;15.02;;;11.98;;
73869;SDS011;64924;42.140;24.762;2023-04-25T05:56:40;15.48;;;11.63;;
73869;SDS011;64924;42.140;24.762;2023-04-25T05:59:06;15.07;;;11.18;;
73869;SDS011;64924;42.140;24.762;2023-04-25T06:01:31;13.88;;;11.00;;
73869;SDS011;64924;42.140;24.762;2023-04-25T06:03:57;14.82;;;10.43;;
73869;SDS011;64924;42.140;24.762;2023-04-25T06:06:22;14.57;;;10.32;;
73869;SDS011;64924;42.140;24.762;2023-04-25T06:08:48;14.52;;;10.27;;
73869;SDS011;64924;42.140;24.762;2023-04-25T06:11:13;13.68;;;8.98;;
73869;SDS011;64924;42.140;24.762;2023-04-25T06:13:38;10.45;;;9.18;;
73869;SDS011;64924;42.140;24.762;2023-04-25T06:16:04;12.70;;;8.85;;
73869;SDS011;64924;42.140;24.762;2023-04-25T06:18:30;13.05;;;10.00;;
73869;SDS011;64924;42.140;24.762;2023-04-25T06:20:56;13.98;;;10.43;;
73869;SDS011;64924;42.140;24.762;2023-04-25T06:23:21;15.02;;;10.60;;
73869;SDS011;64924;42.140;24.762;2023-04-25T06:25:47;12.98;;;11.00;;
73869;SDS011;64924;42.140;24.762;2023-04-25T06:28:12;15.10;;;9.93;;
73869;SDS011;64924;42.140;24.762;2023-04-25T06:30:38;15.60;;;11.68;;
73869;SDS011;64924;42.140;24.762;2023-04-25T06:33:03;16.40;;;10.52;;
73869;SDS011;64924;42.140;24.762;2023-04-25T06:35:29;17.23;;;11.52;;
73869;SDS011;64924;42.140;24.762;2023-04-25T06:37:54;15.52;;;11.70;;
73869;SDS011;64924;42.140;24.762;2023-04-25T06:40:20;16.15;;;10.65;;
73869;SDS011;64924;42.140;24.762;2023-04-25T06:42:45;14.95;;;11.40;;
73869;SDS011;64924;42.140;24.762;2023-04-25T06:45:11;15.68;;;11.07;;
73869;SDS011;64924;42.140;24.762;2023-04-25T06:47:36;12.73;;;9.35;;
73869;SDS011;64924;42.140;24.762;2023-04-25T06:50:02;13.38;;;9.40;;
73869;SDS011;64924;42.140;24.762;2023-04-25T06:52:28;12.05;;;9.77;;
73869;SDS011;64924;42.140;24.762;2023-04-25T06:54:53;13.77;;;9.70;;
73869;SDS011;64924;42.140;24.762;2023-04-25T06:57:18;13.80;;;10.38;;
73869;SDS011;64924;42.140;24.762;2023-04-25T06:59:44;12.43;;;10.27;;
73869;SDS011;64924;42.140;24.762;2023-04-25T07:02:10;18.90;;;10.73;;
73869;SDS011;64924;42.140;24.762;2023-04-25T07:04:35;14.77;;;9.63;;
73869;SDS011;64924;42.140;24.762;2023-04-25T07:07:01;17.23;;;10.35;;
73869;SDS011;64924;42.140;24.762;2023-04-25T07:09:28;13.23;;;9.38;;
73869;SDS011;64924;42.140;24.762;2023-04-25T07:11:54;16.25;;;10.70;;
73869;SDS011;64924;42.140;24.762;2023-04-25T07:14:19;19.60;;;10.60;;
73869;SDS011;64924;42.140;24.762;2023-04-25T07:16:45;16.67;;;10.32;;
73869;SDS011;64924;42.140;24.762;2023-04-25T07:19:10;13.32;;;10.63;;
73869;SDS011;64924;42.140;24.762;2023-04-25T07:21:36;13.98;;;11.02;;
73869;SDS011;64924;42.140;24.762;2023-04-25T07:24:01;18.23;;;12.43;;
73869;SDS011;64924;42.140;24.762;2023-04-25T07:26:27;14.02;;;11.45;;
73869;SDS011;64924;42.140;24.762;2023-04-25T07:28:52;15.60;;;11.40;;
73869;SDS011;64924;42.140;24.762;2023-04-25T07:31:19;15.45;;;10.13;;
73869;SDS011;64924;42.140;24.762;2023-04-25T07:33:45;18.48;;;10.90;;
73869;SDS011;64924;42.140;24.762;2023-04-25T07:36:11;15.07;;;10.60;;
73869;SDS011;64924;42.140;24.762;2023-04-25T07:38:37;16.17;;;10.52;;
73869;SDS011;64924;42.140;24.762;2023-04-25T07:41:03;11.35;;;9.55;;
73869;SDS011;64924;42.140;24.762;2023-04-25T07:43:28;17.40;;;10.35;;
73869;SDS011;64924;42.140;24.762;2023-04-25T07:45:54;13.10;;;10.25;;
73869;SDS011;64924;42.140;24.762;2023-04-25T07:48:19;16.23;;;9.38;;
73869;SDS011;64924;42.140;24.762;2023-04-25T07:50:45;11.48;;;8.20;;
73869;SDS011;64924;42.140;24.762;2023-04-25T07:53:11;13.68;;;9.50;;
73869;SDS011;64924;42.140;24.762;2023-04-25T07:55:36;12.98;;;9.68;;
73869;SDS011;64924;42.140;24.762;2023-04-25T07:58:05;15.60;;;9.18;;
73869;SDS011;64924;42.140;24.762;2023-04-25T08:00:31;12.95;;;9.43;;
73869;SDS011;64924;42.140;24.762;2023-04-25T08:02:56;16.63;;;9.98;;
73869;SDS011;64924;42.140;24.762;2023-04-25T08:05:22;11.27;;;8.85;;
73869;SDS011;64924;42.140;24.762;2023-04-25T08:07:47;12.00;;;8.85;;
73869;SDS011;64924;42.140;24.762;2023-04-25T08:10:13;17.08;;;9.40;;
73869;SDS011;64924;42.140;24.762;2023-04-25T08:12:38;15.07;;;8.77;;
73869;SDS011;64924;42.140;24.762;2023-04-25T08:15:04;14.90;;;8.80;;
73869;SDS011;64924;42.140;24.762;2023-04-25T08:17:31;13.25;;;8.20;;
73869;SDS011;64924;42.140;24.762;2023-04-25T08:19:56;13.82;;;7.72;;
73869;SDS011;64924;42.140;24.762;2023-04-25T08:22:22;9.85;;;6.80;;
73869;SDS011;64924;42.140;24.762;2023-04-25T08:24:48;12.00;;;5.93;;
73869;SDS011;64924;42.140;24.762;2023-04-25T08:27:13;8.73;;;5.53;;
73869;SDS011;64924;42.140;24.762;2023-04-25T08:29:39;11.70;;;5.15;;
73869;SDS011;64924;42.140;24.762;2023-04-25T08:32:04;15.85;;;4.75;;
73869;SDS011;64924;42.140;24.762;2023-04-25T08:34:30;7.70;;;5.07;;
73869;SDS011;64924;42.140;24.762;2023-04-25T08:36:55;8.90;;;5.05;;
73869;SDS011;64924;42.140;24.762;2023-04-25T08:39:21;9.30;;;5.30;;
73869;SDS011;64924;42.140;24.762;2023-04-25T08:41:46;11.18;;;5.15;;
73869;SDS011;64924;42.140;24.762;2023-04-25T08:44:12;4.35;;;2.53;;
73869;SDS011;64924;42.140;24.762;2023-04-25T08:46:40;4.47;;;2.90;;
73869;SDS011;64924;42.140;24.762;2023-04-25T08:49:06;6.30;;;3.72;;
73869;SDS011;64924;42.140;24.762;2023-04-25T08:51:32;4.28;;;2.97;;
73869;SDS011;64924;42.140;24.762;2023-04-25T08:56:40;8.27;;;3.10;;
73869;SDS011;64924;42.140;24.762;2023-04-25T08:59:09;6.57;;;3.08;;
73869;SDS011;64924;42.140;24.762;2023-04-25T09:01:35;5.57;;;2.97;;
73869;SDS011;64924;42.140;24.762;2023-04-25T09:04:01;3.65;;;3.25;;
73869;SDS011;64924;42.140;24.762;2023-04-25T09:06:28;5.97;;;3.13;;
73869;SDS011;64924;42.140;24.762;2023-04-25T09:09:00;8.63;;;3.13;;
73869;SDS011;64924;42.140;24.762;2023-04-25T09:11:30;4.60;;;3.33;;
73869;SDS011;64924;42.140;24.762;2023-04-25T09:14:15;5.88;;;3.03;;
73869;SDS011;64924;42.140;24.762;2023-04-25T09:19:24;9.93;;;4.25;;
73869;SDS011;64924;42.140;24.762;2023-04-25T09:21:51;7.20;;;4.05;;
73869;SDS011;64924;42.140;24.762;2023-04-25T09:24:29;10.98;;;4.00;;
73869;SDS011;64924;42.140;24.762;2023-04-25T09:27:05;9.18;;;3.95;;
73869;SDS011;64924;42.140;24.762;2023-04-25T09:29:35;5.30;;;2.88;;
73869;SDS011;64924;42.140;24.762;2023-04-25T09:34:42;4.38;;;3.30;;
73869;SDS011;64924;42.140;24.762;2023-04-25T09:37:09;4.43;;;3.28;;
73869;SDS011;64924;42.140;24.762;2023-04-25T09:39:38;6.63;;;3.13;;
73869;SDS011;64924;42.140;24.762;2023-04-25T09:42:04;4.82;;;3.33;;
73869;SDS011;64924;42.140;24.762;2023-04-25T09:44:30;8.10;;;3.03;;
73869;SDS011;64924;42.140;24.762;2023-04-25T09:46:56;8.50;;;3.63;;
73869;SDS011;64924;42.140;24.762;2023-04-25T09:49:22;6.80;;;3.25;;
73869;SDS011;64924;42.140;24.762;2023-04-25T09:51:57;4.38;;;3.10;;
73869;SDS011;64924;42.140;24.762;2023-04-25T09:54:26;4.82;;;3.20;;
73869;SDS011;64924;42.140;24.762;2023-04-25T09:56:52;7.63;;;4.22;;
73869;SDS011;64924;42.140;24.762;2023-04-25T09:59:19;3.92;;;3.38;;
73869;SDS011;64924;42.140;24.762;2023-04-25T10:01:46;3.65;;;2.88;;
73869;SDS011;64924;42.140;24.762;2023-04-25T10:04:14;6.47;;;3.17;;
73869;SDS011;64924;42.140;24.762;2023-04-25T10:06:45;4.10;;;3.35;;
73869;SDS011;64924;42.140;24.762;2023-04-25T10:09:14;6.45;;;3.58;;
73869;SDS011;64924;42.140;24.762;2023-04-25T10:11:41;3.28;;;2.80;;
73869;SDS011;64924;42.140;24.762;2023-04-25T10:14:06;6.47;;;3.15;;
73869;SDS011;64924;42.140;24.762;2023-04-25T10:16:32;3.90;;;3.35;;
73869;SDS011;64924;42.140;24.762;2023-04-25T10:18:58;4.13;;;3.30;;
73869;SDS011;64924;42.140;24.762;2023-04-25T10:21:24;4.72;;;3.30;;
73869;SDS011;64924;42.140;24.762;2023-04-25T10:23:53;6.15;;;2.90;;
73869;SDS011;64924;42.140;24.762;2023-04-25T10:26:19;4.82;;;3.13;;
73869;SDS011;64924;42.140;24.762;2023-04-25T10:28:58;5.03;;;3.38;;
73869;SDS011;64924;42.140;24.762;2023-04-25T10:31:25;6.80;;;2.72;;
73869;SDS011;64924;42.140;24.762;2023-04-25T10:33:51;6.55;;;3.58;;
73869;SDS011;64924;42.140;24.762;2023-04-25T10:36:18;4.28;;;2.83;;
73869;SDS011;64924;42.140;24.762;2023-04-25T10:38:47;3.20;;;2.90;;
73869;SDS011;64924;42.140;24.762;2023-04-25T10:41:15;8.52;;;2.75;;
73869;SDS011;64924;42.140;24.762;2023-04-25T10:43:44;6.82;;;2.65;;
73869;SDS011;64924;42.140;24.762;2023-04-25T10:48:56;4.03;;;3.13;;
73869;SDS011;64924;42.140;24.762;2023-04-25T10:56:32;5.13;;;2.53;;
73869;SDS011;64924;42.140;24.762;2023-04-25T10:59:11;3.60;;;2.85;;
73869;SDS011;64924;42.140;24.762;2023-04-25T11:01:42;3.13;;;2.33;;
73869;SDS011;64924;42.140;24.762;2023-04-25T11:04:22;4.63;;;3.00;;
73869;SDS011;64924;42.140;24.762;2023-04-25T11:09:35;5.57;;;3.55;;
73869;SDS011;64924;42.140;24.762;2023-04-25T11:12:03;6.07;;;3.20;;
73869;SDS011;64924;42.140;24.762;2023-04-25T11:14:30;5.18;;;3.42;;
73869;SDS011;64924;42.140;24.762;2023-04-25T11:16:56;4.03;;;3.38;;
73869;SDS011;64924;42.140;24.762;2023-04-25T11:19:23;5.30;;;3.75;;
73869;SDS011;64924;42.140;24.762;2023-04-25T11:21:49;7.50;;;3.72;;
73869;SDS011;64924;42.140;24.762;2023-04-25T11:24:17;4.70;;;2.97;;
73869;SDS011;64924;42.140;24.762;2023-04-25T11:26:46;4.15;;;3.47;;
73869;SDS011;64924;42.140;24.762;2023-04-25T11:29:12;5.72;;;3.85;;
73869;SDS011;64924;42.140;24.762;2023-04-25T11:31:38;7.68;;;3.50;;
73869;SDS011;64924;42.140;24.762;2023-04-25T11:34:03;5.28;;;3.53;;
73869;SDS011;64924;42.140;24.762;2023-04-25T11:36:29;7.05;;;3.53;;
73869;SDS011;64924;42.140;24.762;2023-04-25T11:38:55;10.52;;;4.20;;
73869;SDS011;64924;42.140;24.762;2023-04-25T11:41:21;7.57;;;4.30;;
73869;SDS011;64924;42.140;24.762;2023-04-25T11:43:47;7.03;;;4.60;;
73869;SDS011;64924;42.140;24.762;2023-04-25T11:46:13;6.70;;;3.70;;
73869;SDS011;64924;42.140;24.762;2023-04-25T11:48:42;7.68;;;3.78;;
73869;SDS011;64924;42.140;24.762;2023-04-25T11:51:08;7.33;;;3.40;;
73869;SDS011;64924;42.140;24.762;2023-04-25T11:53:34;6.47;;;3.80;;
73869;SDS011;64924;42.140;24.762;2023-04-25T11:56:00;5.45;;;3.25;;
73869;SDS011;64924;42.140;24.762;2023-04-25T11:58:26;5.78;;;3.42;;
73869;SDS011;64924;42.140;24.762;2023-04-25T12:00:52;8.60;;;4.03;;
73869;SDS011;64924;42.140;24.762;2023-04-25T12:03:18;16.10;;;4.43;;
73869;SDS011;64924;42.140;24.762;2023-04-25T12:05:45;5.05;;;3.47;;
73869;SDS011;64924;42.140;24.762;2023-04-25T12:08:14;6.57;;;3.83;;
73869;SDS011;64924;42.140;24.762;2023-04-25T12:10:42;8.05;;;4.28;;
73869;SDS011;64924;42.140;24.762;2023-04-25T12:13:20;8.00;;;4.25;;
73869;SDS011;64924;42.140;24.762;2023-04-25T12:15:49;7.88;;;3.85;;
73869;SDS011;64924;42.140;24.762;2023-04-25T12:18:18;5.53;;;3.70;;
73869;SDS011;64924;42.140;24.762;2023-04-25T12:20:45;5.38;;;3.70;;
73869;SDS011;64924;42.140;24.762;2023-04-25T12:23:11;7.93;;;3.00;;
73869;SDS011;64924;42.140;24.762;2023-04-25T12:25:38;4.22;;;3.20;;
73869;SDS011;64924;42.140;24.762;2023-04-25T12:28:16;5.90;;;3.45;;
73869;SDS011;64924;42.140;24.762;2023-04-25T12:30:52;7.25;;;3.90;;
73869;SDS011;64924;42.140;24.762;2023-04-25T12:33:18;9.55;;;3.63;;
73869;SDS011;64924;42.140;24.762;2023-04-25T12:35:43;7.55;;;4.82;;
73869;SDS011;64924;42.140;24.762;2023-04-25T12:38:09;8.10;;;4.80;;
73869;SDS011;64924;42.140;24.762;2023-04-25T12:40:34;6.45;;;4.82;;
73869;SDS011;64924;42.140;24.762;2023-04-25T12:43:00;8.95;;;4.47;;
73869;SDS011;64924;42.140;24.762;2023-04-25T12:45:25;5.50;;;4.18;;
73869;SDS011;64924;42.140;24.762;2023-04-25T12:47:50;8.25;;;4.35;;
73869;SDS011;64924;42.140;24.762;2023-04-25T12:50:16;7.22;;;4.25;;
73869;SDS011;64924;42.140;24.762;2023-04-25T12:52:41;6.30;;;4.25;;
73869;SDS011;64924;42.140;24.762;2023-04-25T12:55:07;4.78;;;3.72;;
73869;SDS011;64924;42.140;24.762;2023-04-25T12:57:32;8.38;;;3.80;;
73869;SDS011;64924;42.140;24.762;2023-04-25T12:59:58;4.50;;;3.72;;
73869;SDS011;64924;42.140;24.762;2023-04-25T13:02:23;5.05;;;2.95;;
73869;SDS011;64924;42.140;24.762;2023-04-25T13:04:49;7.10;;;3.55;;
73869;SDS011;64924;42.140;24.762;2023-04-25T13:07:16;5.03;;;3.20;;
73869;SDS011;64924;42.140;24.762;2023-04-25T13:09:41;5.35;;;3.40;;
73869;SDS011;64924;42.140;24.762;2023-04-25T13:12:07;3.80;;;2.95;;
73869;SDS011;64924;42.140;24.762;2023-04-25T13:14:32;7.60;;;3.83;;
73869;SDS011;64924;42.140;24.762;2023-04-25T13:16:58;7.00;;;3.55;;
73869;SDS011;64924;42.140;24.762;2023-04-25T13:19:24;6.13;;;4.75;;
73869;SDS011;64924;42.140;24.762;2023-04-25T13:21:50;11.95;;;3.72;;
73869;SDS011;64924;42.140;24.762;2023-04-25T13:24:16;6.72;;;3.10;;
73869;SDS011;64924;42.140;24.762;2023-04-25T13:26:41;7.60;;;3.25;;
73869;SDS011;64924;42.140;24.762;2023-04-25T13:29:07;7.68;;;3.72;;
73869;SDS011;64924;42.140;24.762;2023-04-25T13:31:32;9.73;;;4.55;;
73869;SDS011;64924;42.140;24.762;2023-04-25T13:33:58;8.88;;;4.80;;
73869;SDS011;64924;42.140;24.762;2023-04-25T13:36:23;4.32;;;2.30;;
73869;SDS011;64924;42.140;24.762;2023-04-25T13:38:49;4.57;;;2.55;;
73869;SDS011;64924;42.140;24.762;2023-04-25T13:41:15;10.13;;;2.88;;
73869;SDS011;64924;42.140;24.762;2023-04-25T13:43:43;8.75;;;2.67;;
73869;SDS011;64924;42.140;24.762;2023-04-25T13:46:10;3.63;;;2.70;;
73869;SDS011;64924;42.140;24.762;2023-04-25T13:48:37;3.80;;;1.88;;
73869;SDS011;64924;42.140;24.762;2023-04-25T13:51:03;3.70;;;1.75;;
73869;SDS011;64924;42.140;24.762;2023-04-25T13:53:28;3.70;;;1.95;;
73869;SDS011;64924;42.140;24.762;2023-04-25T13:55:54;3.63;;;2.03;;
73869;SDS011;64924;42.140;24.762;2023-04-25T13:58:19;4.10;;;1.80;;
73869;SDS011;64924;42.140;24.762;2023-04-25T14:00:45;2.70;;;1.48;;
73869;SDS011;64924;42.140;24.762;2023-04-25T14:03:11;2.33;;;1.33;;
73869;SDS011;64924;42.140;24.762;2023-04-25T14:05:37;2.42;;;1.48;;
73869;SDS011;64924;42.140;24.762;2023-04-25T14:08:09;2.15;;;1.60;;
73869;SDS011;64924;42.140;24.762;2023-04-25T14:10:35;5.25;;;1.80;;
73869;SDS011;64924;42.140;24.762;2023-04-25T14:13:01;2.70;;;1.52;;
73869;SDS011;64924;42.140;24.762;2023-04-25T14:15:28;2.72;;;1.70;;
73869;SDS011;64924;42.140;24.762;2023-04-25T14:17:55;2.55;;;1.25;;
73869;SDS011;64924;42.140;24.762;2023-04-25T14:20:20;2.33;;;1.40;;
73869;SDS011;64924;42.140;24.762;2023-04-25T14:22:46;4.25;;;1.83;;
73869;SDS011;64924;42.140;24.762;2023-04-25T14:25:12;4.88;;;1.90;;
73869;SDS011;64924;42.140;24.762;2023-04-25T14:27:37;4.80;;;2.20;;
73869;SDS011;64924;42.140;24.762;2023-04-25T14:30:03;4.57;;;2.45;;
73869;SDS011;64924;42.140;24.762;2023-04-25T14:32:29;3.25;;;1.88;;
73869;SDS011;64924;42.140;24.762;2023-04-25T14:34:57;11.23;;;2.10;;
73869;SDS011;64924;42.140;24.762;2023-04-25T14:37:22;2.83;;;1.77;;
73869;SDS011;64924;42.140;24.762;2023-04-25T14:39:48;2.85;;;1.60;;
73869;SDS011;64924;42.140;24.762;2023-04-25T14:42:13;6.13;;;3.88;;